Time;durP1;ratioP1;P1;durP2;ratioP2;P2;SDS_P1;SDS_P2;PMS_P1;PMS_P2;Temp;Humidity;BMP_temperature;BMP_pressure;BME280_temperature;BME280_humidity;BME280_pressure;Samples;Min_cycle;Max_cycle;Signal;HPM_P1;HPM_P2
2021/04/09 00:01:19;;;;;;;11.65;6.03;;;;;;;;;;5093423;28;20208;-73
2021/04/09 00:03:45;;;;;;;10.18;5.50;;;;;;;;;;5093770;28;20249;-73
2021/04/09 00:06:11;;;;;;;11.05;4.82;;;;;;;;;;5094104;28;20531;-73
2021/04/09 00:08:37;;;;;;;6.97;4.57;;;;;;;;;;5093556;28;20202;-73
2021/04/09 00:11:03;;;;;;;11.07;5.95;;;;;;;;;;5094042;28;20204;-71
2021/04/09 00:13:30;;;;;;;7.28;4.72;;;;;;;;;;5093543;28;20199;-73
2021/04/09 00:15:56;;;;;;;6.72;4.72;;;;;;;;;;5093686;28;20212;-74
2021/04/09 00:18:22;;;;;;;7.55;5.03;;;;;;;;;;5093327;28;20281;-73
2021/04/09 00:20:48;;;;;;;11.35;6.45;;;;;;;;;;5093355;28;20225;-72
2021/04/09 00:23:14;;;;;;;8.82;5.30;;;;;;;;;;5093063;28;20230;-73
2021/04/09 00:25:40;;;;;;;10.18;4.78;;;;;;;;;;5093366;28;20290;-73
2021/04/09 00:28:07;;;;;;;10.35;5.13;;;;;;;;;;5093020;28;20206;-74
2021/04/09 00:30:33;;;;;;;7.95;4.85;;;;;;;;;;5091878;28;20700;-73
2021/04/09 00:32:59;;;;;;;10.40;5.80;;;;;;;;;;5093046;28;20203;-74
2021/04/09 00:35:26;;;;;;;7.32;4.30;;;;;;;;;;5093165;28;20243;-73
2021/04/09 00:37:52;;;;;;;7.32;4.72;;;;;;;;;;5093170;28;20204;-72
2021/04/09 00:40:18;;;;;;;9.05;5.43;;;;;;;;;;5093692;28;20545;-72
2021/04/09 00:42:45;;;;;;;6.82;5.43;;;;;;;;;;5093284;28;20211;-73
2021/04/09 00:45:13;;;;;;;10.68;4.80;;;;;;;;;;5094112;28;20768;-72
2021/04/09 00:47:41;;;;;;;10.25;5.80;;;;;;;;;;5093228;28;20188;-73
2021/04/09 00:50:07;;;;;;;7.00;5.15;;;;;;;;;;5093189;28;20329;-72
2021/04/09 00:52:35;;;;;;;12.27;5.15;;;;;;;;;;5093352;28;20180;-73
2021/04/09 00:55:01;;;;;;;7.28;4.82;;;;;;;;;;5093011;28;20265;-73
2021/04/09 00:57:28;;;;;;;8.40;5.22;;;;;;;;;;5092786;28;20216;-73
2021/04/09 00:59:54;;;;;;;8.98;5.10;;;;;;;;;;5093092;28;20271;-73
2021/04/09 01:02:21;;;;;;;14.40;6.78;;;;;;;;;;5093187;28;20210;-72
2021/04/09 01:04:47;;;;;;;7.63;4.88;;;;;;;;;;5095164;28;20211;-71
2021/04/09 01:07:13;;;;;;;10.13;5.20;;;;;;;;;;5097071;28;20575;-74
2021/04/09 01:09:39;;;;;;;10.23;5.60;;;;;;;;;;5096995;28;20241;-73
2021/04/09 01:12:06;;;;;;;11.40;6.57;;;;;;;;;;5096965;28;20834;-73
2021/04/09 01:14:32;;;;;;;5.60;4.75;;;;;;;;;;5096540;28;20433;-73
2021/04/09 01:17:01;;;;;;;8.45;5.70;;;;;;;;;;5096715;28;20224;-72
2021/04/09 01:19:42;;;;;;;7.40;4.93;;;;;;;;;;5096710;28;20566;-72
2021/04/09 01:22:09;;;;;;;7.90;5.38;;;;;;;;;;5052574;28;20231;-73
2021/04/09 01:24:50;;;;;;;11.40;5.53;;;;;;;;;;5096029;28;20232;-73
2021/04/09 01:27:44;;;;;;;7.38;4.35;;;;;;;;;;5093655;28;20228;-73
2021/04/09 01:30:29;;;;;;;5.97;5.10;;;;;;;;;;5097097;28;20184;-73
2021/04/09 01:32:56;;;;;;;6.05;4.90;;;;;;;;;;5096007;28;20196;-73
2021/04/09 01:35:23;;;;;;;6.00;4.30;;;;;;;;;;5096509;28;20199;-73
2021/04/09 01:37:53;;;;;;;6.97;4.10;;;;;;;;;;5095736;28;20323;-72
2021/04/09 01:40:20;;;;;;;8.93;5.03;;;;;;;;;;5096406;28;20250;-72
2021/04/09 01:42:46;;;;;;;8.95;7.15;;;;;;;;;;5096719;28;20188;-72
2021/04/09 01:45:14;;;;;;;6.65;4.30;;;;;;;;;;5096561;28;20294;-73
2021/04/09 01:47:41;;;;;;;5.97;4.78;;;;;;;;;;5096259;28;20180;-73
2021/04/09 01:50:11;;;;;;;13.88;4.70;;;;;;;;;;5096524;28;20660;-72
2021/04/09 01:52:38;;;;;;;6.60;5.18;;;;;;;;;;5096346;28;20267;-72
2021/04/09 01:55:05;;;;;;;6.45;5.00;;;;;;;;;;5096191;28;20207;-72
2021/04/09 01:57:32;;;;;;;7.20;5.50;;;;;;;;;;5095559;28;20783;-73
2021/04/09 01:59:59;;;;;;;7.80;5.60;;;;;;;;;;5095896;28;20208;-73
2021/04/09 02:02:25;;;;;;;9.98;5.72;;;;;;;;;;5095941;28;20212;-72
2021/04/09 02:04:51;;;;;;;6.70;5.05;;;;;;;;;;5095736;28;20246;-73
2021/04/09 02:07:19;;;;;;;6.00;4.80;;;;;;;;;;5096040;28;20183;-73
2021/04/09 02:09:46;;;;;;;5.80;4.53;;;;;;;;;;5095574;28;20263;-73
2021/04/09 02:12:13;;;;;;;4.80;4.30;;;;;;;;;;5095281;28;20289;-72
2021/04/09 02:14:41;;;;;;;14.70;5.80;;;;;;;;;;5095221;28;20184;-72
2021/04/09 02:17:08;;;;;;;7.65;5.60;;;;;;;;;;5094477;28;20677;-72
2021/04/09 02:19:34;;;;;;;6.07;4.07;;;;;;;;;;5095180;28;20618;-73
2021/04/09 02:22:00;;;;;;;5.00;4.50;;;;;;;;;;5095405;28;20191;-72
2021/04/09 02:24:27;;;;;;;6.53;4.47;;;;;;;;;;5095790;28;20588;-72
2021/04/09 02:26:53;;;;;;;9.10;5.93;;;;;;;;;;5095654;28;20196;-73
2021/04/09 02:29:19;;;;;;;7.68;3.97;;;;;;;;;;5096003;28;20186;-72
2021/04/09 02:31:45;;;;;;;6.18;5.57;;;;;;;;;;5096115;28;20255;-73
2021/04/09 02:34:11;;;;;;;7.82;4.43;;;;;;;;;;5095675;28;20238;-72
2021/04/09 02:36:37;;;;;;;8.20;4.47;;;;;;;;;;5095338;28;20224;-72
2021/04/09 02:39:05;;;;;;;8.17;4.67;;;;;;;;;;5095431;28;20541;-73
2021/04/09 02:41:35;;;;;;;6.03;3.85;;;;;;;;;;5095484;28;20775;-72
2021/04/09 02:44:01;;;;;;;5.30;4.18;;;;;;;;;;5094786;28;20226;-74
2021/04/09 02:46:33;;;;;;;5.90;4.97;;;;;;;;;;5095695;28;20192;-72
2021/04/09 02:49:02;;;;;;;5.82;4.35;;;;;;;;;;5095449;28;20276;-73
2021/04/09 02:51:28;;;;;;;6.15;4.25;;;;;;;;;;5094815;28;20719;-73
2021/04/09 02:53:57;;;;;;;9.68;5.63;;;;;;;;;;5095055;28;20291;-72
2021/04/09 02:56:24;;;;;;;6.30;4.45;;;;;;;;;;5094861;28;20239;-72
2021/04/09 02:58:51;;;;;;;7.65;4.60;;;;;;;;;;5094838;28;20675;-73
2021/04/09 03:01:19;;;;;;;6.10;3.72;;;;;;;;;;5094889;28;20291;-73
2021/04/09 03:03:45;;;;;;;7.25;6.30;;;;;;;;;;5095019;28;20271;-73
2021/04/09 03:06:11;;;;;;;6.50;4.75;;;;;;;;;;5094960;28;20181;-72
2021/04/09 03:08:37;;;;;;;4.72;4.20;;;;;;;;;;5094301;28;20658;-74
2021/04/09 03:11:03;;;;;;;9.13;5.27;;;;;;;;;;5095175;28;20191;-73
2021/04/09 03:13:30;;;;;;;8.35;5.07;;;;;;;;;;5094471;28;20453;-73
2021/04/09 03:15:58;;;;;;;4.95;3.88;;;;;;;;;;5094463;28;20232;-72
2021/04/09 03:18:25;;;;;;;8.60;5.78;;;;;;;;;;5094529;28;20621;-73
2021/04/09 03:20:54;;;;;;;6.50;4.05;;;;;;;;;;5094377;28;20275;-72
2021/04/09 03:23:20;;;;;;;5.95;5.35;;;;;;;;;;5094735;28;20646;-73
2021/04/09 03:25:46;;;;;;;6.25;4.75;;;;;;;;;;5094470;28;20275;-73
2021/04/09 03:28:12;;;;;;;4.83;4.33;;;;;;;;;;5094149;28;20230;-72
2021/04/09 03:30:38;;;;;;;16.98;5.45;;;;;;;;;;5094513;28;20531;-73
2021/04/09 03:33:05;;;;;;;5.95;4.90;;;;;;;;;;5094150;28;20230;-73
2021/04/09 03:35:31;;;;;;;5.68;4.53;;;;;;;;;;5094478;28;20512;-72
2021/04/09 03:37:57;;;;;;;7.68;5.47;;;;;;;;;;5094427;28;20204;-72
2021/04/09 03:40:23;;;;;;;6.83;3.93;;;;;;;;;;5094050;28;20657;-73
2021/04/09 03:42:49;;;;;;;7.88;4.47;;;;;;;;;;5093889;28;20852;-71
2021/04/09 03:45:15;;;;;;;4.70;4.00;;;;;;;;;;5093867;28;20203;-73
2021/04/09 03:47:41;;;;;;;10.43;4.85;;;;;;;;;;5094175;28;20442;-73
2021/04/09 03:50:08;;;;;;;6.45;4.05;;;;;;;;;;5094431;28;20184;-72
2021/04/09 03:52:36;;;;;;;5.32;4.15;;;;;;;;;;5093804;28;20248;-72
2021/04/09 03:55:03;;;;;;;8.68;5.55;;;;;;;;;;5094286;28;20200;-73
2021/04/09 03:57:29;;;;;;;7.00;4.63;;;;;;;;;;5093867;28;20261;-73
2021/04/09 03:59:54;;;;;;;13.93;4.38;;;;;;;;;;5093614;28;20188;-73
2021/04/09 04:02:20;;;;;;;7.17;4.03;;;;;;;;;;5094159;28;20627;-74
2021/04/09 04:04:46;;;;;;;14.00;5.60;;;;;;;;;;5093536;28;20445;-73
2021/04/09 04:07:13;;;;;;;5.03;4.53;;;;;;;;;;5093788;28;20473;-73
2021/04/09 04:09:39;;;;;;;3.90;3.28;;;;;;;;;;5094055;28;20465;-72
2021/04/09 04:12:06;;;;;;;8.97;4.83;;;;;;;;;;5093370;28;20188;-72
2021/04/09 04:14:32;;;;;;;5.63;4.30;;;;;;;;;;5093234;28;20481;-73
2021/04/09 04:16:58;;;;;;;6.10;4.17;;;;;;;;;;5094080;28;20246;-73
2021/04/09 04:19:24;;;;;;;4.47;3.47;;;;;;;;;;5094054;28;20513;-73
2021/04/09 04:21:50;;;;;;;8.13;5.37;;;;;;;;;;5093487;28;20184;-73
2021/04/09 04:24:17;;;;;;;7.57;5.10;;;;;;;;;;5093683;28;20912;-73
2021/04/09 04:26:43;;;;;;;6.15;3.70;;;;;;;;;;5093328;28;20220;-74
2021/04/09 04:29:09;;;;;;;3.80;3.30;;;;;;;;;;5093858;28;20263;-73
2021/04/09 04:31:35;;;;;;;4.53;3.70;;;;;;;;;;5093285;28;20503;-72
2021/04/09 04:34:01;;;;;;;6.83;4.73;;;;;;;;;;5093641;28;20810;-72
2021/04/09 04:36:26;;;;;;;7.27;4.43;;;;;;;;;;5093040;28;20480;-72
2021/04/09 04:38:52;;;;;;;7.87;5.03;;;;;;;;;;5094109;28;20507;-73
2021/04/09 04:41:19;;;;;;;13.02;5.07;;;;;;;;;;5097828;28;20509;-73
2021/04/09 04:43:45;;;;;;;6.30;3.85;;;;;;;;;;5097783;28;20594;-73
2021/04/09 04:46:11;;;;;;;10.60;4.40;;;;;;;;;;5097263;28;20298;-73
2021/04/09 04:48:37;;;;;;;6.90;4.67;;;;;;;;;;5097091;28;20187;-73
2021/04/09 04:51:07;;;;;;;6.50;5.90;;;;;;;;;;5097169;28;20449;-73
2021/04/09 04:53:33;;;;;;;6.25;4.68;;;;;;;;;;5097198;28;20474;-73
2021/04/09 04:55:59;;;;;;;9.07;6.15;;;;;;;;;;5096790;28;20204;-74
2021/04/09 04:58:25;;;;;;;8.60;5.40;;;;;;;;;;5097393;28;20253;-74
2021/04/09 05:00:51;;;;;;;9.85;4.60;;;;;;;;;;5096576;28;20503;-72
2021/04/09 05:03:17;;;;;;;6.37;5.03;;;;;;;;;;5097748;28;20192;-72
2021/04/09 05:05:43;;;;;;;5.43;4.67;;;;;;;;;;5096991;28;20521;-73
2021/04/09 05:08:09;;;;;;;8.50;5.37;;;;;;;;;;5096778;28;20488;-73
2021/04/09 05:10:35;;;;;;;9.33;4.00;;;;;;;;;;5096972;28;20434;-73
2021/04/09 05:13:01;;;;;;;7.00;4.73;;;;;;;;;;5097195;28;20417;-73
2021/04/09 05:15:28;;;;;;;6.27;4.43;;;;;;;;;;5097191;28;20453;-72
2021/04/09 05:17:53;;;;;;;11.20;5.68;;;;;;;;;;5096824;28;21011;-73
2021/04/09 05:20:20;;;;;;;4.90;4.40;;;;;;;;;;5096457;28;20190;-73
2021/04/09 05:22:46;;;;;;;5.85;4.22;;;;;;;;;;5096817;28;20446;-74
2021/04/09 05:25:12;;;;;;;8.00;5.25;;;;;;;;;;5096543;28;20192;-73
2021/04/09 05:27:38;;;;;;;5.57;4.80;;;;;;;;;;5096587;28;20291;-73
2021/04/09 05:30:04;;;;;;;8.27;5.77;;;;;;;;;;5096450;28;20635;-72
2021/04/09 05:32:31;;;;;;;7.55;5.10;;;;;;;;;;5096499;28;20418;-72
2021/04/09 05:34:57;;;;;;;10.05;6.00;;;;;;;;;;5095993;28;20260;-73
2021/04/09 05:37:23;;;;;;;8.07;4.77;;;;;;;;;;5095614;28;20657;-73
2021/04/09 05:39:49;;;;;;;7.43;5.90;;;;;;;;;;5095985;28;20433;-73
2021/04/09 05:42:15;;;;;;;6.53;5.10;;;;;;;;;;5096188;28;20450;-73
2021/04/09 05:44:41;;;;;;;12.38;5.85;;;;;;;;;;5096082;28;20435;-72
2021/04/09 05:47:08;;;;;;;8.50;6.25;;;;;;;;;;5096383;28;20219;-74
2021/04/09 05:49:35;;;;;;;9.80;5.70;;;;;;;;;;5098713;28;20613;-73
2021/04/09 05:52:02;;;;;;;8.20;5.13;;;;;;;;;;5095602;28;20705;-73
2021/04/09 05:54:28;;;;;;;8.65;5.20;;;;;;;;;;5096238;28;20192;-73
2021/04/09 05:56:54;;;;;;;7.10;4.88;;;;;;;;;;5095750;28;20218;-72
2021/04/09 05:59:20;;;;;;;13.13;6.32;;;;;;;;;;5096032;28;20294;-73
2021/04/09 06:01:46;;;;;;;14.03;5.37;;;;;;;;;;5095831;28;20253;-73
2021/04/09 06:04:12;;;;;;;8.77;5.00;;;;;;;;;;5096090;28;20434;-73
2021/04/09 06:06:38;;;;;;;5.53;4.57;;;;;;;;;;5096059;28;20736;-73
2021/04/09 06:09:05;;;;;;;6.30;5.53;;;;;;;;;;5095446;28;20645;-73
2021/04/09 06:11:31;;;;;;;10.77;6.15;;;;;;;;;;5095865;28;20235;-73
2021/04/09 06:13:57;;;;;;;17.88;6.10;;;;;;;;;;5096112;28;20535;-73
2021/04/09 06:16:23;;;;;;;8.27;5.75;;;;;;;;;;5094922;28;20227;-73
2021/04/09 06:18:49;;;;;;;8.50;5.47;;;;;;;;;;5095338;28;20230;-72
2021/04/09 06:21:15;;;;;;;11.23;6.30;;;;;;;;;;5095400;28;20438;-73
2021/04/09 06:23:41;;;;;;;9.90;4.90;;;;;;;;;;5095613;28;21001;-73
2021/04/09 06:26:08;;;;;;;10.73;4.97;;;;;;;;;;5095572;28;20942;-73
2021/04/09 06:28:34;;;;;;;9.30;6.22;;;;;;;;;;5095502;28;20596;-74
2021/04/09 06:30:59;;;;;;;9.60;6.83;;;;;;;;;;5095617;28;20237;-73
2021/04/09 06:33:25;;;;;;;14.50;6.73;;;;;;;;;;5095249;28;20499;-73
2021/04/09 06:35:51;;;;;;;12.10;6.23;;;;;;;;;;5094834;28;20489;-72
2021/04/09 06:38:17;;;;;;;7.80;6.10;;;;;;;;;;5095222;28;20474;-72
2021/04/09 06:40:45;;;;;;;11.53;6.07;;;;;;;;;;5095250;28;20509;-74
2021/04/09 06:43:11;;;;;;;11.68;7.13;;;;;;;;;;5095763;28;20442;-73
2021/04/09 06:45:38;;;;;;;8.05;5.82;;;;;;;;;;5095197;28;20290;-73
2021/04/09 06:48:04;;;;;;;8.40;5.82;;;;;;;;;;5094774;28;20226;-74
2021/04/09 06:50:30;;;;;;;8.35;6.95;;;;;;;;;;5095321;28;20302;-73
2021/04/09 06:52:56;;;;;;;11.87;7.83;;;;;;;;;;5095589;28;20695;-74
2021/04/09 06:55:23;;;;;;;8.50;6.78;;;;;;;;;;5095399;28;20557;-73
2021/04/09 06:57:52;;;;;;;9.38;6.50;;;;;;;;;;5096105;28;20212;-72
2021/04/09 07:00:21;;;;;;;11.20;6.22;;;;;;;;;;5096788;28;20207;-72
2021/04/09 07:02:47;;;;;;;11.30;7.35;;;;;;;;;;5094571;28;20276;-71
2021/04/09 07:05:13;;;;;;;13.60;7.43;;;;;;;;;;5096754;28;20190;-72
2021/04/09 07:07:39;;;;;;;11.23;6.53;;;;;;;;;;5095425;28;20539;-73
2021/04/09 07:10:06;;;;;;;7.93;6.25;;;;;;;;;;5094473;28;20224;-72
2021/04/09 07:12:33;;;;;;;17.30;7.05;;;;;;;;;;5095078;28;20319;-72
2021/04/09 07:15:01;;;;;;;6.53;5.90;;;;;;;;;;5094874;28;20612;-73
2021/04/09 07:17:28;;;;;;;12.70;7.55;;;;;;;;;;5094732;28;20211;-72
2021/04/09 07:20:07;;;;;;;5.25;4.63;;;;;;;;;;5094942;28;20678;-71
2021/04/09 07:22:33;;;;;;;10.82;5.40;;;;;;;;;;5094353;28;20184;-73
2021/04/09 07:25:03;;;;;;;8.93;5.50;;;;;;;;;;5094440;28;20619;-71
2021/04/09 07:27:29;;;;;;;12.35;5.68;;;;;;;;;;5094592;28;20754;-72
2021/04/09 07:29:55;;;;;;;13.03;5.57;;;;;;;;;;5094487;28;20229;-72
2021/04/09 07:32:26;;;;;;;13.40;6.53;;;;;;;;;;5094253;28;20442;-72
2021/04/09 07:34:53;;;;;;;8.00;5.95;;;;;;;;;;5094124;28;20919;-72
2021/04/09 07:37:19;;;;;;;11.60;6.88;;;;;;;;;;5093486;28;20595;-72
2021/04/09 07:39:45;;;;;;;10.13;5.35;;;;;;;;;;5093889;28;20195;-72
2021/04/09 07:42:11;;;;;;;12.87;7.27;;;;;;;;;;5093704;28;20222;-72
2021/04/09 07:44:38;;;;;;;5.85;4.43;;;;;;;;;;5093112;28;20445;-73
2021/04/09 07:47:08;;;;;;;6.18;4.05;;;;;;;;;;5093462;28;20188;-73
2021/04/09 07:49:34;;;;;;;6.47;4.10;;;;;;;;;;5094073;28;20176;-72
2021/04/09 07:52:09;;;;;;;5.38;4.22;;;;;;;;;;5093759;28;20207;-72
2021/04/09 07:54:35;;;;;;;12.98;3.72;;;;;;;;;;5079945;28;20225;-72
2021/04/09 07:57:01;;;;;;;6.10;3.63;;;;;;;;;;5093549;28;20286;-72
2021/04/09 07:59:37;;;;;;;6.70;4.00;;;;;;;;;;5093303;28;20665;-73
2021/04/09 08:02:03;;;;;;;4.57;3.42;;;;;;;;;;5093530;28;20205;-72
2021/04/09 08:04:36;;;;;;;6.30;4.20;;;;;;;;;;5093349;28;20184;-73
2021/04/09 08:07:02;;;;;;;6.00;5.43;;;;;;;;;;5093448;28;20520;-72
2021/04/09 08:09:28;;;;;;;8.88;5.50;;;;;;;;;;5090434;28;20572;-72
2021/04/09 08:11:55;;;;;;;6.07;4.70;;;;;;;;;;5092946;28;20263;-76
2021/04/09 08:14:23;;;;;;;7.93;4.45;;;;;;;;;;5093475;28;20478;-70
2021/04/09 08:16:50;;;;;;;5.10;3.70;;;;;;;;;;5092991;28;20202;-72
2021/04/09 08:19:17;;;;;;;7.82;4.38;;;;;;;;;;5093017;28;20252;-72
2021/04/09 08:21:45;;;;;;;6.85;4.70;;;;;;;;;;5092917;28;20204;-71
2021/04/09 08:24:12;;;;;;;9.40;4.15;;;;;;;;;;5093545;28;20282;-71
2021/04/09 08:26:38;;;;;;;8.68;4.53;;;;;;;;;;5093537;28;20261;-72
2021/04/09 08:29:06;;;;;;;6.97;3.92;;;;;;;;;;5093945;28;20292;-72
2021/04/09 08:31:32;;;;;;;4.95;3.80;;;;;;;;;;5093332;28;20278;-71
2021/04/09 08:33:59;;;;;;;8.68;4.90;;;;;;;;;;5093747;28;20586;-71
2021/04/09 08:36:26;;;;;;;6.22;4.05;;;;;;;;;;5092707;28;20237;-72
2021/04/09 08:38:53;;;;;;;6.55;4.25;;;;;;;;;;5089694;28;20221;-70
2021/04/09 08:41:19;;;;;;;11.88;4.15;;;;;;;;;;5088883;28;20205;-71
2021/04/09 08:43:45;;;;;;;4.93;4.20;;;;;;;;;;5092974;28;20199;-71
2021/04/09 08:46:12;;;;;;;17.38;4.80;;;;;;;;;;5092962;28;20185;-71
2021/04/09 08:48:39;;;;;;;3.70;2.72;;;;;;;;;;5093182;28;20201;-71
2021/04/09 08:51:06;;;;;;;6.78;3.90;;;;;;;;;;5092779;28;20209;-72
2021/04/09 08:53:32;;;;;;;4.95;4.22;;;;;;;;;;5092420;28;20198;-73
2021/04/09 08:55:59;;;;;;;7.57;4.00;;;;;;;;;;5092919;28;20193;-71
2021/04/09 08:58:25;;;;;;;7.05;4.78;;;;;;;;;;5092014;28;20309;-71
2021/04/09 09:00:51;;;;;;;4.78;2.90;;;;;;;;;;5092696;28;20245;-72
2021/04/09 09:03:24;;;;;;;9.55;4.63;;;;;;;;;;5092611;28;20212;-72
2021/04/09 09:05:57;;;;;;;10.38;4.35;;;;;;;;;;5092531;28;20238;-72
2021/04/09 09:08:24;;;;;;;5.75;3.83;;;;;;;;;;5091405;28;20280;-71
2021/04/09 09:10:50;;;;;;;3.90;3.50;;;;;;;;;;5091958;28;20199;-72
2021/04/09 09:13:36;;;;;;;4.47;3.30;;;;;;;;;;5092771;28;20195;-72
2021/04/09 09:16:13;;;;;;;5.22;3.88;;;;;;;;;;5091995;28;20472;-71
2021/04/09 09:18:43;;;;;;;5.15;4.18;;;;;;;;;;5091266;28;20218;-71
2021/04/09 09:21:10;;;;;;;5.70;4.07;;;;;;;;;;5092371;28;20199;-72
2021/04/09 09:23:43;;;;;;;4.53;4.00;;;;;;;;;;5092404;28;20192;-71
2021/04/09 09:26:19;;;;;;;6.97;4.00;;;;;;;;;;5094701;28;20204;-72
2021/04/09 09:28:46;;;;;;;4.05;3.67;;;;;;;;;;5095525;28;20267;-71
2021/04/09 09:31:29;;;;;;;4.10;3.22;;;;;;;;;;5095390;28;20195;-71
2021/04/09 09:34:14;;;;;;;6.57;3.97;;;;;;;;;;5095747;28;20284;-71
2021/04/09 09:36:55;;;;;;;4.93;3.40;;;;;;;;;;5095539;28;20244;-71
2021/04/09 09:39:31;;;;;;;6.43;3.95;;;;;;;;;;5091220;28;20682;-71
2021/04/09 09:41:57;;;;;;;5.43;3.25;;;;;;;;;;5095260;28;20192;-72
2021/04/09 09:44:24;;;;;;;6.32;4.70;;;;;;;;;;5095429;28;20206;-71
2021/04/09 09:46:52;;;;;;;7.25;2.95;;;;;;;;;;5095339;28;20196;-71
2021/04/09 09:49:19;;;;;;;3.10;2.90;;;;;;;;;;5095412;28;20207;-71
2021/04/09 09:51:45;;;;;;;6.47;3.90;;;;;;;;;;5094890;28;20223;-70
2021/04/09 09:54:22;;;;;;;5.05;3.72;;;;;;;;;;5095790;28;20598;-71
2021/04/09 09:56:48;;;;;;;8.80;2.67;;;;;;;;;;5094787;28;20188;-73
2021/04/09 09:59:16;;;;;;;3.92;3.00;;;;;;;;;;5094995;28;20215;-70
2021/04/09 10:01:47;;;;;;;4.45;3.30;;;;;;;;;;5095491;28;20188;-71
2021/04/09 10:04:15;;;;;;;7.47;4.18;;;;;;;;;;5094700;28;20203;-71
2021/04/09 10:06:46;;;;;;;9.00;3.78;;;;;;;;;;5095296;28;20266;-70
2021/04/09 10:09:12;;;;;;;7.63;3.53;;;;;;;;;;5094085;28;20200;-70
2021/04/09 10:11:44;;;;;;;8.10;4.00;;;;;;;;;;5094982;28;20246;-72
2021/04/09 10:14:09;;;;;;;6.03;3.65;;;;;;;;;;5095466;28;20912;-72
2021/04/09 10:16:36;;;;;;;6.27;3.53;;;;;;;;;;5094791;28;20222;-72
2021/04/09 10:19:05;;;;;;;8.20;3.28;;;;;;;;;;5095148;28;20473;-71
2021/04/09 10:21:33;;;;;;;7.93;3.65;;;;;;;;;;5094539;28;20200;-71
2021/04/09 10:24:03;;;;;;;3.13;2.42;;;;;;;;;;5094466;28;20195;-72
2021/04/09 10:26:29;;;;;;;5.07;3.35;;;;;;;;;;5074324;28;20242;-72
2021/04/09 10:28:55;;;;;;;6.57;3.85;;;;;;;;;;5074997;28;20254;-70
2021/04/09 10:31:22;;;;;;;7.50;3.50;;;;;;;;;;5074573;28;20216;-72
2021/04/09 10:33:48;;;;;;;3.80;3.10;;;;;;;;;;5075022;28;20497;-71
2021/04/09 10:36:15;;;;;;;4.40;3.22;;;;;;;;;;5072971;28;20247;-71
2021/04/09 10:38:42;;;;;;;10.55;3.38;;;;;;;;;;5089961;28;20219;-71
2021/04/09 10:41:08;;;;;;;4.00;3.10;;;;;;;;;;5090166;28;20184;-72
2021/04/09 10:43:35;;;;;;;3.93;3.10;;;;;;;;;;5094707;28;20687;-72
2021/04/09 10:46:07;;;;;;;5.03;2.78;;;;;;;;;;5093928;28;20434;-71
2021/04/09 10:48:34;;;;;;;4.85;3.35;;;;;;;;;;5094730;28;20215;-71
2021/04/09 10:51:00;;;;;;;3.63;3.20;;;;;;;;;;5094402;28;20611;-72
2021/04/09 10:53:26;;;;;;;4.68;3.92;;;;;;;;;;5093824;28;20235;-71
2021/04/09 10:55:53;;;;;;;3.10;2.80;;;;;;;;;;5094180;28;20196;-71
2021/04/09 10:58:19;;;;;;;5.75;2.85;;;;;;;;;;5073498;28;20236;-72
2021/04/09 11:00:45;;;;;;;5.28;3.08;;;;;;;;;;5073723;28;20200;-71
2021/04/09 11:03:12;;;;;;;5.60;3.45;;;;;;;;;;5073424;28;20241;-71
2021/04/09 11:05:38;;;;;;;4.53;3.22;;;;;;;;;;5087392;28;20543;-71
2021/04/09 11:08:04;;;;;;;5.03;2.60;;;;;;;;;;5094092;28;20201;-71
2021/04/09 11:10:31;;;;;;;7.15;3.38;;;;;;;;;;5094105;28;20251;-70
2021/04/09 11:12:57;;;;;;;5.30;2.78;;;;;;;;;;5093701;28;20221;-71
2021/04/09 11:15:23;;;;;;;4.20;2.70;;;;;;;;;;5093796;28;20208;-71
2021/04/09 11:17:53;;;;;;;5.27;3.07;;;;;;;;;;5094592;28;20212;-72
2021/04/09 11:20:20;;;;;;;5.00;3.25;;;;;;;;;;5094345;28;20440;-71
2021/04/09 11:22:46;;;;;;;5.75;3.85;;;;;;;;;;5093952;28;20651;-70
2021/04/09 11:25:13;;;;;;;4.32;3.17;;;;;;;;;;5093725;28;20216;-71
2021/04/09 11:27:41;;;;;;;5.70;3.00;;;;;;;;;;5094272;28;20231;-71
2021/04/09 11:30:14;;;;;;;3.22;2.42;;;;;;;;;;5093478;28;20184;-71
2021/04/09 11:32:40;;;;;;;5.30;3.08;;;;;;;;;;5093387;28;20200;-71
2021/04/09 11:35:10;;;;;;;4.15;3.20;;;;;;;;;;5093299;28;20624;-72
2021/04/09 11:37:46;;;;;;;4.85;3.10;;;;;;;;;;5093974;28;20318;-72
2021/04/09 11:40:13;;;;;;;6.22;3.55;;;;;;;;;;5095465;28;20587;-73
2021/04/09 11:42:39;;;;;;;5.60;3.95;;;;;;;;;;5094194;28;20572;-72
2021/04/09 11:45:06;;;;;;;4.50;3.13;;;;;;;;;;5094413;28;20188;-72
2021/04/09 11:47:34;;;;;;;4.97;3.58;;;;;;;;;;5093667;28;20513;-72
2021/04/09 11:50:02;;;;;;;4.82;3.88;;;;;;;;;;5094197;28;20287;-74
2021/04/09 11:52:28;;;;;;;2.63;2.33;;;;;;;;;;5093540;28;20196;-74
2021/04/09 11:54:54;;;;;;;5.97;4.40;;;;;;;;;;5094013;28;20375;-72
2021/04/09 11:57:20;;;;;;;4.93;3.45;;;;;;;;;;5093947;28;20262;-72
2021/04/09 11:59:46;;;;;;;3.97;3.53;;;;;;;;;;5093548;28;20290;-72
2021/04/09 12:02:16;;;;;;;6.30;3.47;;;;;;;;;;5094056;28;20184;-73
2021/04/09 12:04:43;;;;;;;6.93;3.58;;;;;;;;;;5093733;28;20477;-73
2021/04/09 12:07:13;;;;;;;7.10;4.03;;;;;;;;;;5093107;28;20223;-72
2021/04/09 12:09:39;;;;;;;8.85;3.60;;;;;;;;;;5093531;28;20196;-74
2021/04/09 12:12:06;;;;;;;8.52;3.45;;;;;;;;;;5093401;28;20188;-73
2021/04/09 12:14:33;;;;;;;7.65;2.92;;;;;;;;;;5092928;28;20239;-75
2021/04/09 12:16:58;;;;;;;6.07;3.30;;;;;;;;;;5093428;28;20208;-74
2021/04/09 12:19:24;;;;;;;6.03;3.50;;;;;;;;;;5093375;28;20230;-74
2021/04/09 12:21:51;;;;;;;5.13;3.13;;;;;;;;;;5093397;28;20494;-73
2021/04/09 12:24:17;;;;;;;9.30;3.45;;;;;;;;;;5093101;28;20485;-73
2021/04/09 12:26:43;;;;;;;4.25;2.85;;;;;;;;;;5093255;28;20189;-74
2021/04/09 12:29:10;;;;;;;3.83;2.67;;;;;;;;;;5093601;28;20280;-74
2021/04/09 12:31:36;;;;;;;3.58;2.67;;;;;;;;;;5093624;28;20188;-72
2021/04/09 12:34:02;;;;;;;3.33;2.60;;;;;;;;;;5093900;28;20233;-74
2021/04/09 12:36:28;;;;;;;3.10;2.35;;;;;;;;;;5093271;28;20877;-73
2021/04/09 12:38:55;;;;;;;5.30;2.78;;;;;;;;;;5093279;28;20204;-76
2021/04/09 12:41:21;;;;;;;3.38;3.00;;;;;;;;;;5090516;28;20263;-73
2021/04/09 12:43:49;;;;;;;3.60;2.43;;;;;;;;;;5092509;28;20638;-73
2021/04/09 12:46:15;;;;;;;8.00;2.70;;;;;;;;;;5093381;28;20483;-70
2021/04/09 12:48:41;;;;;;;6.73;2.70;;;;;;;;;;5092541;28;20196;-73
2021/04/09 12:51:07;;;;;;;3.58;2.55;;;;;;;;;;5091466;28;20454;-72
2021/04/09 12:53:32;;;;;;;3.30;2.30;;;;;;;;;;5092359;28;20267;-70
2021/04/09 12:55:59;;;;;;;3.40;2.60;;;;;;;;;;5093094;28;20448;-71
2021/04/09 12:58:25;;;;;;;3.72;2.72;;;;;;;;;;5092204;28;20520;-72
2021/04/09 13:00:51;;;;;;;3.93;2.83;;;;;;;;;;5112511;28;20195;-70
2021/04/09 13:03:17;;;;;;;4.38;3.25;;;;;;;;;;5116114;28;20469;-72
2021/04/09 13:05:43;;;;;;;8.37;2.70;;;;;;;;;;5116144;28;20206;-71
2021/04/09 13:08:09;;;;;;;5.93;2.43;;;;;;;;;;5116665;28;20484;-70
2021/04/09 13:10:35;;;;;;;6.30;3.03;;;;;;;;;;5100933;28;20469;-71
2021/04/09 13:13:02;;;;;;;7.47;2.47;;;;;;;;;;5096417;28;20451;-72
2021/04/09 13:15:28;;;;;;;5.95;2.78;;;;;;;;;;5095653;28;20445;-72
2021/04/09 13:17:54;;;;;;;6.82;2.35;;;;;;;;;;5096456;28;20198;-71
2021/04/09 13:20:20;;;;;;;3.53;2.50;;;;;;;;;;5095470;28;20701;-73
2021/04/09 13:22:46;;;;;;;4.00;2.10;;;;;;;;;;5096736;28;20501;-74
2021/04/09 13:25:12;;;;;;;4.27;2.53;;;;;;;;;;5095537;28;20423;-71
2021/04/09 13:27:38;;;;;;;3.33;2.80;;;;;;;;;;5093576;28;20519;-71
2021/04/09 13:30:06;;;;;;;4.68;1.98;;;;;;;;;;5095032;28;20184;-71
2021/04/09 13:32:33;;;;;;;3.17;2.00;;;;;;;;;;5095212;28;20634;-70
2021/04/09 13:34:59;;;;;;;4.30;2.53;;;;;;;;;;5095252;28;20489;-71
2021/04/09 13:37:27;;;;;;;4.23;1.90;;;;;;;;;;5094717;28;20239;-71
2021/04/09 13:39:53;;;;;;;5.40;2.80;;;;;;;;;;5094713;28;20480;-72
2021/04/09 13:42:18;;;;;;;3.30;2.57;;;;;;;;;;5094727;28;20667;-74
2021/04/09 13:44:45;;;;;;;3.70;2.33;;;;;;;;;;5095840;28;20453;-72
2021/04/09 13:47:11;;;;;;;2.67;2.07;;;;;;;;;;5095631;28;20613;-72
2021/04/09 13:49:38;;;;;;;6.05;2.40;;;;;;;;;;5094949;28;20462;-72
2021/04/09 13:52:04;;;;;;;4.77;3.00;;;;;;;;;;5095219;28;20214;-71
2021/04/09 13:54:30;;;;;;;2.78;2.50;;;;;;;;;;5095064;28;20463;-71
2021/04/09 13:56:56;;;;;;;3.17;2.10;;;;;;;;;;5094593;28;20213;-71
2021/04/09 13:59:22;;;;;;;4.50;2.85;;;;;;;;;;5094283;28;20227;-71
2021/04/09 14:01:48;;;;;;;4.13;2.20;;;;;;;;;;5094671;28;20645;-72
2021/04/09 14:04:15;;;;;;;3.38;2.47;;;;;;;;;;5094655;28;20636;-73
2021/04/09 14:06:41;;;;;;;2.90;2.20;;;;;;;;;;5094417;28;20206;-71
2021/04/09 14:09:07;;;;;;;6.30;2.77;;;;;;;;;;5094913;28;20209;-72
2021/04/09 14:11:33;;;;;;;3.03;2.33;;;;;;;;;;5094755;28;20441;-71
2021/04/09 14:13:59;;;;;;;10.70;2.60;;;;;;;;;;5094536;28;20553;-71
2021/04/09 14:16:26;;;;;;;8.47;3.37;;;;;;;;;;5095036;28;20442;-73
2021/04/09 14:18:52;;;;;;;2.10;1.90;;;;;;;;;;5094579;28;20478;-70
2021/04/09 14:21:19;;;;;;;2.90;1.50;;;;;;;;;;5094159;28;20469;-72
2021/04/09 14:23:45;;;;;;;4.40;2.10;;;;;;;;;;5094398;28;20466;-73
2021/04/09 14:26:11;;;;;;;4.37;2.90;;;;;;;;;;5094574;28;20437;-72
2021/04/09 14:28:37;;;;;;;4.50;2.77;;;;;;;;;;5094560;28;20430;-72
2021/04/09 14:31:04;;;;;;;3.63;2.53;;;;;;;;;;5094545;28;20434;-71
2021/04/09 14:33:30;;;;;;;4.50;2.30;;;;;;;;;;5094806;28;20473;-71
2021/04/09 14:35:56;;;;;;;4.10;2.23;;;;;;;;;;5094643;28;20620;-71
2021/04/09 14:38:23;;;;;;;2.80;1.80;;;;;;;;;;5094219;28;20645;-72
2021/04/09 14:40:49;;;;;;;3.33;1.90;;;;;;;;;;5094195;28;20446;-72